KHYR

Sawyer County Airport

Hayward, Wisconsin, USA
METAR KHYR 191753Z AUTO 12004KT 10SM OVC007 14/13 A3006 RMK AO2 SLP185 T01440133 10144 20106 58010
Observed Flight Rules
Sep-19 @ 17:53 UTC (55 minutes ago) Instrument Flight Rules
Wind Visibility Clouds
120° at 4 knots 10 miles
  • Overcast at 700' AGL
Temperatures Readings
Current 14°C / 57°F
Dewpoint 13°C / 55°F
Humidity 94%
Altimeter 30.06" Hg
Pressure 1018.5 hPa
Elevation 370
METAR KHYR 191753Z AUTO 12004KT 10SM OVC007 14/13 A3006 RMK AO2 SLP185 T01440133 10144 20106 58010
Observed Flight Rules
Sep-19 @ 17:53 UTC
(55 minutes ago)
IFR
Wind Visibility
120° at 4 knots 10 miles
Clouds
  • Overcast at 700' AGL
Temperature Dewpoint
14°C / 57°F 13°C / 55°F
Humidity Altimeter Pressure
94% 30.06" Hg 1018.5 hPa